Time;durP1;ratioP1;P1;durP2;ratioP2;P2;SDS_P1;SDS_P2;PMS_P1;PMS_P2;Temp;Humidity;BMP_temperature;BMP_pressure;BME280_temperature;BME280_humidity;BME280_pressure;Samples;Min_cycle;Max_cycle;Signal;HPM_P1;HPM_P2
2022/11/21 00:00:45;;;;;;;87.13;51.67;;;;;;;-0.09;100.00;159391.28;5033601;28;20083;-63
2022/11/21 00:03:10;;;;;;;87.68;52.05;;;;;;;-0.07;100.00;158893.38;5032312;28;20784;-63
2022/11/21 00:05:44;;;;;;;87.72;47.00;;;;;;;-0.08;100.00;158787.66;5033761;28;20030;-63
2022/11/21 00:08:11;;;;;;;87.90;48.05;;;;;;;-0.07;100.00;158593.69;5032404;28;20045;-63
2022/11/21 00:10:37;;;;;;;88.65;50.85;;;;;;;-0.07;100.00;158242.47;5033627;28;20485;-63
2022/11/21 00:13:03;;;;;;;82.75;46.70;;;;;;;-0.05;100.00;158094.53;5032102;28;20145;-62
2022/11/21 00:15:29;;;;;;;89.32;50.35;;;;;;;-0.07;100.00;157900.75;5033201;28;20096;-62
2022/11/21 00:17:54;;;;;;;79.13;46.45;;;;;;;-0.06;100.00;157794.94;5026339;28;20045;-63
2022/11/21 00:20:21;;;;;;;89.35;49.20;;;;;;;-0.03;100.00;157401.47;5033568;28;20032;-62
2022/11/21 00:22:47;;;;;;;94.55;48.22;;;;;;;-0.02;100.00;157046.19;5032026;28;20377;-62
2022/11/21 00:25:13;;;;;;;86.45;48.90;;;;;;;-0.05;100.00;157340.69;5032920;28;20487;-62
2022/11/21 00:27:38;;;;;;;85.15;46.42;;;;;;;-0.08;100.00;157431.75;5032290;28;20053;-62
2022/11/21 00:30:06;;;;;;;83.55;47.78;;;;;;;-0.10;100.00;157429.19;5033206;28;20028;-62
2022/11/21 00:32:31;;;;;;;76.93;47.25;;;;;;;-0.10;100.00;157680.06;5031274;28;20046;-62
2022/11/21 00:34:56;;;;;;;85.20;47.42;;;;;;;-0.20;100.00;158305.78;5032788;28;20036;-62
2022/11/21 00:37:22;;;;;;;97.82;48.05;;;;;;;-0.24;100.00;158636.81;5031504;28;20046;-62
2022/11/21 00:39:47;;;;;;;91.22;48.08;;;;;;;-0.20;100.00;159012.09;5032223;28;20484;-62
2022/11/21 00:42:12;;;;;;;90.18;46.38;;;;;;;-0.27;100.00;159217.28;5031614;28;20462;-61
2022/11/21 00:44:38;;;;;;;88.32;48.75;;;;;;;-0.24;100.00;159537.09;5032782;28;20029;-61
2022/11/21 00:47:03;;;;;;;85.72;46.50;;;;;;;-0.23;100.00;159827.28;5031097;28;20049;-61
2022/11/21 00:49:28;;;;;;;94.65;47.05;;;;;;;-0.25;100.00;160098.56;5033190;28;20018;-61
2022/11/21 00:51:54;;;;;;;74.55;47.70;;;;;;;-0.22;100.00;160178.47;5031422;28;20492;-61
2022/11/21 00:54:19;;;;;;;90.88;48.70;;;;;;;-0.36;100.00;160480.03;5032375;28;20029;-61
2022/11/21 00:56:44;;;;;;;90.20;48.05;;;;;;;-0.45;100.00;160457.28;5031503;28;20045;-61
2022/11/21 00:59:10;;;;;;;89.05;47.53;;;;;;;-0.52;100.00;160438.53;5032732;28;20026;-61
2022/11/21 01:01:35;;;;;;;88.40;51.67;;;;;;;-0.50;100.00;160443.91;5030858;28;20095;-61
2022/11/21 01:04:00;;;;;;;89.65;52.00;;;;;;;-0.53;100.00;160435.84;5032570;28;20025;-60
2022/11/21 01:06:26;;;;;;;96.50;52.75;;;;;;;-0.53;100.00;160435.84;5031441;28;20041;-61
2022/11/21 01:08:51;;;;;;;94.35;48.38;;;;;;;-0.54;100.00;160433.16;5032377;28;20499;-60
2022/11/21 01:11:19;;;;;;;98.20;52.65;;;;;;;-0.54;100.00;160434.50;5030695;28;20528;-60
2022/11/21 01:13:46;;;;;;;104.43;53.20;;;;;;;-0.53;100.00;160435.84;5032577;28;20087;-60
2022/11/21 01:16:16;;;;;;;112.22;60.22;;;;;;;-0.53;100.00;160411.44;5030546;28;20021;-60
2022/11/21 01:18:42;;;;;;;99.65;58.17;;;;;;;-0.52;100.00;160034.53;5032070;28;20025;-60
2022/11/21 01:21:17;;;;;;;124.43;75.03;;;;;;;-0.51;100.00;159631.88;5031381;28;20029;-60
2022/11/21 01:23:42;;;;;;;112.18;63.35;;;;;;;-0.46;100.00;158994.63;5031707;28;20043;-60
2022/11/21 01:26:13;;;;;;;103.82;66.57;;;;;;;-0.46;100.00;158586.63;5030585;28;20025;-60
2022/11/21 01:28:39;;;;;;;116.97;71.85;;;;;;;-0.44;100.00;158052.56;5032602;28;20029;-61
2022/11/21 01:31:08;;;;;;;108.38;64.78;;;;;;;-0.40;100.00;157457.44;5030315;28;20029;-60
2022/11/21 01:33:34;;;;;;;93.97;53.25;;;;;;;-0.39;100.00;156977.69;5032177;28;20029;-59
2022/11/21 01:36:16;;;;;;;108.78;59.40;;;;;;;-0.41;100.00;156869.50;5030489;28;20028;-61
2022/11/21 01:38:44;;;;;;;101.22;55.88;;;;;;;-0.41;100.00;156513.13;5031565;28;20029;-61
2022/11/21 01:41:11;;;;;;;105.00;55.05;;;;;;;-0.44;100.00;156640.78;5030084;28;20369;-61
2022/11/21 01:43:37;;;;;;;100.65;55.42;;;;;;;-0.45;100.00;156646.28;5031262;28;20103;-62
2022/11/21 01:46:06;;;;;;;103.50;58.13;;;;;;;-0.49;100.00;156618.19;5030022;28;20108;-61
2022/11/21 01:48:47;;;;;;;100.10;57.80;;;;;;;-0.43;100.00;155819.84;5031823;28;20021;-62
2022/11/21 01:51:34;;;;;;;110.03;59.40;;;;;;;-0.39;100.00;155319.69;5030573;28;20032;-60
2022/11/21 01:54:18;;;;;;;110.93;58.58;;;;;;;-0.38;100.00;154895.59;5030995;28;20057;-60
2022/11/21 01:56:59;;;;;;;108.72;56.72;;;;;;;-0.38;100.00;154527.25;5030053;28;21956;-60
2022/11/21 01:59:29;;;;;;;116.63;60.38;;;;;;;-0.41;100.00;154205.38;5031808;28;20171;-60
2022/11/21 02:01:56;;;;;;;109.88;57.08;;;;;;;-0.33;100.00;153607.25;5030044;28;20037;-60
2022/11/21 02:04:27;;;;;;;102.40;54.60;;;;;;;-0.24;100.00;152535.03;5031611;28;20033;-60
2022/11/21 02:06:53;;;;;;;100.95;55.42;;;;;;;-0.25;100.00;152532.50;5029410;28;20061;-60
2022/11/21 02:09:19;;;;;;;106.70;55.17;;;;;;;-0.28;100.00;152871.44;5031699;28;20028;-60
2022/11/21 02:11:57;;;;;;;98.63;59.63;;;;;;;-0.37;100.00;153743.22;5029756;28;20439;-60
2022/11/21 02:14:23;;;;;;;94.38;54.30;;;;;;;-0.45;100.00;155021.03;5031259;28;20030;-59
2022/11/21 02:16:49;;;;;;;107.00;60.40;;;;;;;-0.47;100.00;155522.31;5029873;28;20103;-60
2022/11/21 02:19:27;;;;;;;117.55;62.50;;;;;;;-0.45;100.00;155694.16;5026124;28;20571;-61
2022/11/21 02:22:06;;;;;;;118.63;61.58;;;;;;;-0.42;100.00;155475.72;5028687;28;20522;-61
2022/11/21 02:24:42;;;;;;;111.45;61.20;;;;;;;-0.40;100.00;155459.19;5031186;28;20039;-62
2022/11/21 02:27:09;;;;;;;112.70;59.92;;;;;;;-0.41;100.00;155814.16;5029891;28;20045;-61
2022/11/21 02:29:34;;;;;;;101.18;60.70;;;;;;;-0.44;100.00;156344.16;5030983;28;20033;-61
2022/11/21 02:32:04;;;;;;;106.88;57.20;;;;;;;-0.45;100.00;156768.22;5029061;28;20467;-61
2022/11/21 02:34:29;;;;;;;117.18;63.85;;;;;;;-0.44;100.00;156845.34;5030792;28;20033;-61
2022/11/21 02:36:55;;;;;;;115.70;59.60;;;;;;;-0.46;100.00;157150.31;5029108;28;20064;-61
2022/11/21 02:39:24;;;;;;;104.28;58.65;;;;;;;-0.44;100.00;157150.16;5030732;28;20025;-61
2022/11/21 02:42:04;;;;;;;;;;;;;;;-0.44;100.00;157339.84;5030060;28;20121;-60
2022/11/21 02:44:47;;;;;;;118.38;56.78;;;;;;;-0.42;100.00;157496.88;5030447;28;19967;-61
2022/11/21 02:47:13;;;;;;;102.28;56.95;;;;;;;-0.43;100.00;157664.97;5029519;28;20037;-61
2022/11/21 02:49:52;;;;;;;121.28;63.30;;;;;;;-0.41;100.00;157705.41;5031027;28;20361;-61
2022/11/21 02:52:17;;;;;;;114.47;56.05;;;;;;;-0.38;100.00;157594.06;5028849;28;20060;-61
2022/11/21 02:54:42;;;;;;;118.57;60.40;;;;;;;-0.37;100.00;157423.25;5030433;28;20025;-61
2022/11/21 02:57:08;;;;;;;108.35;58.85;;;;;;;-0.28;100.00;156959.13;5029371;28;20048;-62
2022/11/21 02:59:33;;;;;;;102.20;61.08;;;;;;;-0.30;100.00;157140.88;5030293;28;20033;-62
2022/11/21 03:01:59;;;;;;;104.25;57.05;;;;;;;-0.35;100.00;157455.63;5029412;28;20045;-62
2022/11/21 03:04:25;;;;;;;117.60;57.42;;;;;;;-0.35;100.00;157715.81;5030846;28;20079;-62
2022/11/21 03:06:51;;;;;;;102.28;55.35;;;;;;;-0.36;100.00;157778.25;5028677;28;20443;-62
2022/11/21 03:09:16;;;;;;;104.88;52.50;;;;;;;-0.34;100.00;157742.84;5030453;28;20542;-62
2022/11/21 03:11:42;;;;;;;105.30;54.88;;;;;;;-0.37;100.00;158155.06;5029142;28;20033;-61
2022/11/21 03:14:07;;;;;;;97.65;53.10;;;;;;;-0.37;100.00;158296.03;5029935;28;20076;-61
2022/11/21 03:16:32;;;;;;;98.05;52.97;;;;;;;-0.43;100.00;158719.28;5029219;28;20038;-60
2022/11/21 03:18:58;;;;;;;101.85;51.78;;;;;;;-0.42;100.00;159098.75;5030594;28;20075;-60
2022/11/21 03:21:23;;;;;;;109.28;54.05;;;;;;;-0.39;100.00;158919.63;5029092;28;20034;-60
2022/11/21 03:23:49;;;;;;;115.38;60.72;;;;;;;-0.39;100.00;159272.09;5030206;28;20381;-60
2022/11/21 03:26:14;;;;;;;106.78;58.42;;;;;;;-0.44;100.00;159763.09;5029040;28;20053;-60
2022/11/21 03:28:40;;;;;;;110.30;63.30;;;;;;;-0.42;100.00;159681.66;5030283;28;20024;-60
2022/11/21 03:31:06;;;;;;;115.13;57.13;;;;;;;-0.39;100.00;159785.94;5029252;28;20026;-60
2022/11/21 03:33:31;;;;;;;118.95;58.60;;;;;;;-0.34;100.00;159410.13;5031838;28;20420;-60
2022/11/21 03:35:56;;;;;;;109.43;60.25;;;;;;;-0.30;100.00;159268.94;5032032;28;20033;-59
2022/11/21 03:38:22;;;;;;;119.47;60.92;;;;;;;-0.32;100.00;159420.84;5034539;28;20029;-60
2022/11/21 03:40:47;;;;;;;110.38;58.17;;;;;;;-0.34;100.00;159342.34;5033820;28;20029;-60
2022/11/21 03:43:12;;;;;;;112.05;56.75;;;;;;;-0.26;100.00;159103.34;5032389;28;20397;-60
2022/11/21 03:45:38;;;;;;;112.07;56.70;;;;;;;-0.20;100.00;158719.22;5034561;28;20052;-60
2022/11/21 03:48:03;;;;;;;94.47;52.92;;;;;;;-0.19;100.00;158698.88;5032658;28;20042;-60
2022/11/21 03:50:29;;;;;;;109.55;58.67;;;;;;;-0.20;100.00;159097.56;5033483;28;20033;-60
2022/11/21 03:52:54;;;;;;;125.38;62.55;;;;;;;-0.28;100.00;159949.56;5032291;28;20038;-60
2022/11/21 03:55:19;;;;;;;118.30;60.38;;;;;;;-0.34;100.00;160486.78;5033786;28;20480;-60
2022/11/21 03:57:45;;;;;;;135.60;59.20;;;;;;;-0.38;100.00;160476.03;5032190;28;20046;-60
2022/11/21 04:00:11;;;;;;;118.20;57.28;;;;;;;-0.40;100.00;160469.34;5033868;28;20033;-60
2022/11/21 04:02:36;;;;;;;125.25;58.15;;;;;;;-0.41;100.00;160467.97;5032695;28;20048;-60
2022/11/21 04:05:02;;;;;;;125.45;62.72;;;;;;;-0.41;100.00;160467.97;5033813;28;20026;-60
2022/11/21 04:07:28;;;;;;;114.43;56.85;;;;;;;-0.38;100.00;160474.72;5032356;28;20044;-60
2022/11/21 04:09:54;;;;;;;140.90;60.95;;;;;;;-0.41;100.00;160467.97;5033878;28;20105;-60
2022/11/21 04:12:19;;;;;;;136.48;62.67;;;;;;;-0.49;100.00;160446.56;5032355;28;20038;-61
2022/11/21 04:14:44;;;;;;;121.35;54.63;;;;;;;-0.52;100.00;160438.53;5032896;28;20105;-61
2022/11/21 04:17:10;;;;;;;137.15;58.15;;;;;;;-0.58;100.00;160422.47;5032211;28;20041;-61
2022/11/21 04:19:35;;;;;;;157.23;62.38;;;;;;;-0.59;100.00;160419.78;5033869;28;20511;-61
2022/11/21 04:22:00;;;;;;;135.32;63.95;;;;;;;-0.61;100.00;160414.41;5031050;28;20045;-60
2022/11/21 04:24:26;;;;;;;212.10;67.28;;;;;;;-0.67;100.00;160399.69;5033772;28;20044;-60
2022/11/21 04:26:54;;;;;;;164.95;61.80;;;;;;;-0.69;100.00;160394.31;5031491;28;20393;-60
2022/11/21 04:29:19;;;;;;;163.48;61.13;;;;;;;-0.67;100.00;160399.69;5033402;28;20029;-60
2022/11/21 04:31:44;;;;;;;185.13;63.17;;;;;;;-0.67;100.00;160401.03;5031839;28;20048;-60
2022/11/21 04:34:10;;;;;;;297.10;65.57;;;;;;;-0.66;100.00;160403.69;5033176;28;20037;-60
2022/11/21 04:36:35;;;;;;;259.00;71.22;;;;;;;-0.75;100.00;160378.25;5031715;28;20048;-61
2022/11/21 04:39:00;;;;;;;273.05;68.97;;;;;;;-0.76;100.00;160375.56;5032887;28;20471;-61
2022/11/21 04:41:26;;;;;;;364.35;74.43;;;;;;;-0.73;100.00;160384.94;5031625;28;20041;-61
2022/11/21 04:43:51;;;;;;;280.65;69.15;;;;;;;-0.72;100.00;160386.28;5032276;28;20045;-61
2022/11/21 04:46:17;;;;;;;253.20;67.03;;;;;;;-0.77;100.00;160374.22;5030809;28;20090;-62
2022/11/21 04:48:42;;;;;;;458.95;83.78;;;;;;;-0.69;100.00;160394.31;5032133;28;20031;-61
2022/11/21 04:51:07;;;;;;;381.23;77.97;;;;;;;-0.70;100.00;160392.97;5031107;28;20512;-61
2022/11/21 04:53:33;;;;;;;486.40;83.45;;;;;;;-0.66;100.00;160403.69;5033112;28;20056;-61
2022/11/21 04:56:01;;;;;;;535.42;88.60;;;;;;;-0.68;100.00;160398.34;5031060;28;20038;-61
2022/11/21 04:58:27;;;;;;;377.48;73.43;;;;;;;-0.71;100.00;160390.28;5032779;28;20033;-61
2022/11/21 05:00:52;;;;;;;447.70;79.38;;;;;;;-0.74;100.00;160382.28;5032645;28;20443;-61
2022/11/21 05:03:17;;;;;;;472.15;72.80;;;;;;;-0.75;100.00;160379.59;5031505;28;20038;-62
2022/11/21 05:05:43;;;;;;;499.45;85.88;;;;;;;-0.73;100.00;160384.94;5032352;28;20029;-61
2022/11/21 05:08:08;;;;;;;424.23;80.10;;;;;;;-0.63;100.00;160409.06;5031460;28;20053;-62
2022/11/21 05:13:19;;;;;;;468.00;87.00;;;;;;;-0.68;100.00;160398.34;5031961;28;20032;-63
2022/11/21 05:13:21;;;;;;;364.50;71.18;;;;;;;-0.73;100.00;160384.94;5030592;28;20044;-62
2022/11/21 05:15:50;;;;;;;310.00;65.87;;;;;;;-0.77;100.00;160372.88;5032159;28;20134;-61
2022/11/21 05:18:16;;;;;;;540.85;91.85;;;;;;;-0.76;100.00;160376.91;5030960;28;20088;-61
2022/11/21 05:20:42;;;;;;;400.65;73.85;;;;;;;-0.74;100.00;160380.91;5032332;28;20108;-61
2022/11/21 05:23:07;;;;;;;463.77;75.80;;;;;;;-0.67;100.00;160399.69;5033180;28;20049;-61
2022/11/21 05:25:32;;;;;;;311.30;67.03;;;;;;;-0.63;100.00;160410.38;5031933;28;20029;-61
2022/11/21 05:27:58;;;;;;;442.92;82.78;;;;;;;-0.64;100.00;160407.72;5029707;28;20041;-61
2022/11/21 05:30:23;;;;;;;280.55;65.15;;;;;;;-0.71;100.00;160390.28;5032253;28;20033;-61
2022/11/21 05:32:48;;;;;;;482.77;76.10;;;;;;;-0.61;100.00;160414.41;5030240;28;20496;-61
2022/11/21 05:35:14;;;;;;;231.65;63.88;;;;;;;-0.62;100.00;160411.72;5032028;28;20080;-61
2022/11/21 05:37:39;;;;;;;397.77;75.03;;;;;;;-0.57;100.00;160425.13;5030264;28;20511;-60
2022/11/21 05:40:05;;;;;;;321.50;73.57;;;;;;;-0.58;100.00;160422.47;5030914;28;20064;-60
2022/11/21 05:45:15;;;;;;;355.58;70.53;;;;;;;-0.60;100.00;160418.44;5032425;28;20044;-60
2022/11/21 05:47:41;;;;;;;358.27;74.03;;;;;;;-0.57;100.00;160425.13;5025347;28;20046;-62
2022/11/21 05:50:06;;;;;;;356.42;76.30;;;;;;;-0.55;100.00;160430.47;5031652;28;20081;-62
2022/11/21 05:52:32;;;;;;;483.67;86.25;;;;;;;-0.50;100.00;160445.22;5030605;28;20045;-58
2022/11/21 05:54:57;;;;;;;423.60;79.38;;;;;;;-0.45;100.00;160457.28;5031623;28;20095;-58
2022/11/21 05:57:22;;;;;;;361.67;74.97;;;;;;;-0.46;100.00;160454.59;5030171;28;20038;-60
2022/11/21 05:59:48;;;;;;;389.00;73.57;;;;;;;-0.46;100.00;160453.25;5031354;28;20032;-59
2022/11/21 06:04:57;;;;;;;406.95;79.15;;;;;;;-0.43;100.00;160462.66;5031226;28;20040;-59
2022/11/21 06:07:22;;;;;;;298.90;69.70;;;;;;;-0.48;100.00;160449.22;5030202;28;20038;-59
2022/11/21 06:09:47;;;;;;;314.05;73.32;;;;;;;-0.49;100.00;160447.91;5031391;28;20029;-59
2022/11/21 06:12:13;;;;;;;393.75;72.75;;;;;;;-0.44;100.00;160459.97;5029943;28;20037;-59
2022/11/21 06:14:38;;;;;;;382.95;73.95;;;;;;;-0.42;100.00;160465.34;5031526;28;20487;-59
2022/11/21 06:17:03;;;;;;;332.60;74.47;;;;;;;-0.44;100.00;160459.97;5030046;28;20037;-59
2022/11/21 06:19:29;;;;;;;276.85;71.72;;;;;;;-0.52;100.00;160438.53;5031409;28;20083;-59
2022/11/21 06:21:54;;;;;;;346.83;74.53;;;;;;;-0.47;100.00;160451.91;5029802;28;20049;-59
2022/11/21 06:24:19;;;;;;;382.13;77.45;;;;;;;-0.43;100.00;160462.66;5031414;28;20413;-59
2022/11/21 06:26:45;;;;;;;258.02;66.95;;;;;;;-0.46;100.00;160454.59;5029398;28;20041;-59
2022/11/21 06:29:10;;;;;;;413.10;83.00;;;;;;;-0.44;100.00;160458.59;5031410;28;20036;-59
2022/11/21 06:31:36;;;;;;;401.23;75.95;;;;;;;-0.53;100.00;160435.84;5030012;28;20033;-59
2022/11/21 06:34:02;;;;;;;426.85;82.95;;;;;;;-0.47;100.00;160451.91;5030685;28;20029;-59
2022/11/21 06:36:28;;;;;;;399.77;82.35;;;;;;;-0.44;100.00;160459.97;5029725;28;20033;-59
2022/11/21 06:38:54;;;;;;;457.98;83.22;;;;;;;-0.49;100.00;160446.56;5030997;28;20459;-61
2022/11/21 06:41:22;;;;;;;315.95;70.18;;;;;;;-0.52;100.00;160438.53;5029217;28;20033;-59
2022/11/21 06:43:47;;;;;;;339.75;74.75;;;;;;;-0.55;100.00;160430.47;5030798;28;20057;-59
2022/11/21 06:46:13;;;;;;;256.35;67.10;;;;;;;-0.53;100.00;160435.84;5029677;28;20028;-59
2022/11/21 06:48:39;;;;;;;320.52;71.38;;;;;;;-0.50;100.00;160443.91;5030809;28;20071;-59
2022/11/21 06:51:24;;;;;;;264.15;64.50;;;;;;;-0.50;100.00;160445.22;5029160;28;20033;-59
2022/11/21 06:53:55;;;;;;;201.45;57.28;;;;;;;-0.58;100.00;160422.47;5031033;28;20029;-59
2022/11/21 06:56:22;;;;;;;277.92;64.13;;;;;;;-0.59;100.00;160419.78;5029258;28;20415;-59
2022/11/21 06:58:47;;;;;;;312.65;64.60;;;;;;;-0.56;100.00;160429.16;5030631;28;20028;-59
2022/11/21 07:01:12;;;;;;;369.10;72.22;;;;;;;-0.48;100.00;160449.22;5029630;28;20030;-59
2022/11/21 07:03:38;;;;;;;252.80;61.30;;;;;;;-0.47;100.00;160450.59;5030606;28;20040;-59
2022/11/21 07:06:05;;;;;;;280.38;63.28;;;;;;;-0.53;100.00;160435.84;5029065;28;20079;-58
2022/11/21 07:08:33;;;;;;;255.15;60.40;;;;;;;-0.57;100.00;160426.47;5026388;28;20510;-59
2022/11/21 07:11:04;;;;;;;244.25;50.65;;;;;;;-0.53;100.00;160435.84;5028969;28;20124;-58
2022/11/21 07:13:29;;;;;;;376.65;68.40;;;;;;;-0.46;100.00;160454.59;5030699;28;20113;-59
2022/11/21 07:16:04;;;;;;;329.38;66.40;;;;;;;-0.48;100.00;160449.22;5029765;28;20172;-56
2022/11/21 07:18:30;;;;;;;339.65;70.95;;;;;;;-0.50;100.00;160443.91;5030198;28;20017;-59
2022/11/21 07:21:04;;;;;;;353.25;63.03;;;;;;;-0.43;100.00;160462.66;5029113;28;20028;-52
2022/11/21 07:23:30;;;;;;;374.25;61.13;;;;;;;-0.41;100.00;160467.97;5030740;28;20025;-58
2022/11/21 07:26:00;;;;;;;317.55;67.80;;;;;;;-0.36;100.00;160480.03;5026850;28;20100;-54
2022/11/21 07:28:26;;;;;;;386.10;68.07;;;;;;;-0.37;100.00;160478.72;5010818;28;20485;-59
2022/11/21 07:30:55;;;;;;;419.25;65.72;;;;;;;-0.36;100.00;160481.41;5010717;28;20547;-59
2022/11/21 07:33:21;;;;;;;;;;;;;;;-0.36;100.00;160480.03;5009752;28;20052;-58
2022/11/21 07:35:46;;;;;;;446.83;70.15;;;;;;;-0.37;100.00;160478.72;5010589;28;20052;-59
2022/11/21 07:38:11;;;;;;;408.92;66.72;;;;;;;-0.38;100.00;160474.72;5028909;28;20045;-59
2022/11/21 07:40:37;;;;;;;378.33;72.07;;;;;;;-0.36;100.00;160481.41;5030070;28;20044;-59
2022/11/21 07:43:04;;;;;;;401.23;68.72;;;;;;;-0.35;100.00;160484.09;5028570;28;20061;-58
2022/11/21 07:45:29;;;;;;;457.80;74.63;;;;;;;-0.34;100.00;160486.78;5030531;28;20017;-58
2022/11/21 07:48:04;;;;;;;372.67;65.80;;;;;;;-0.29;100.00;160497.47;5028212;28;20498;-58
2022/11/21 07:50:29;;;;;;;455.75;76.88;;;;;;;-0.28;100.00;160500.16;5030352;28;20071;-62
2022/11/21 07:53:06;;;;;;;377.02;67.80;;;;;;;-0.28;100.00;160500.16;5028587;28;20128;-62
2022/11/21 07:55:32;;;;;;;410.02;74.18;;;;;;;-0.35;100.00;160484.09;5029730;28;20025;-59
2022/11/21 07:57:58;;;;;;;400.77;72.00;;;;;;;-0.29;100.00;160497.47;5028483;28;20432;-59
2022/11/21 08:00:25;;;;;;;374.60;67.03;;;;;;;-0.30;100.00;160494.78;5030419;28;20079;-59
2022/11/21 08:02:50;;;;;;;322.33;57.53;;;;;;;-0.32;100.00;160492.09;5028128;28;20041;-58
2022/11/21 08:05:15;;;;;;;290.52;52.85;;;;;;;-0.38;100.00;160476.03;5029946;28;20033;-59
2022/11/21 08:07:41;;;;;;;296.88;58.83;;;;;;;-0.36;100.00;160481.41;5028886;28;20046;-58
2022/11/21 08:10:06;;;;;;;345.75;62.38;;;;;;;-0.27;100.00;160502.84;5029904;28;20028;-59
2022/11/21 08:12:32;;;;;;;282.88;58.33;;;;;;;-0.21;100.00;160518.91;5028833;28;20522;-61
2022/11/21 08:14:57;;;;;;;316.73;53.83;;;;;;;-0.18;100.00;160528.28;5030183;28;20036;-61
2022/11/21 08:17:25;;;;;;;375.45;58.90;;;;;;;-0.13;100.00;160539.00;5028250;28;20038;-58
2022/11/21 08:19:50;;;;;;;289.80;49.17;;;;;;;-0.12;100.00;160543.03;5029971;28;20113;-58
2022/11/21 08:22:15;;;;;;;234.07;46.60;;;;;;;-0.10;100.00;160548.38;5032258;28;20046;-58
2022/11/21 08:24:41;;;;;;;190.63;48.65;;;;;;;-0.08;100.00;160553.75;5033399;28;20029;-59
2022/11/21 08:27:06;;;;;;;221.48;52.08;;;;;;;0.03;100.00;160581.88;5032180;28;20038;-58
2022/11/21 08:29:31;;;;;;;289.02;49.65;;;;;;;0.06;100.00;160588.56;5030088;28;20053;-59
2022/11/21 08:31:57;;;;;;;288.55;57.38;;;;;;;0.12;100.00;160604.66;5031174;28;20041;-58
2022/11/21 08:34:22;;;;;;;180.90;47.45;;;;;;;0.12;100.00;160604.66;5033399;28;20033;-58
2022/11/21 08:36:48;;;;;;;264.13;51.38;;;;;;;0.12;100.00;160604.66;5031481;28;20039;-58
2022/11/21 08:39:13;;;;;;;239.27;52.17;;;;;;;0.10;100.00;160600.63;5033159;28;20025;-58
2022/11/21 08:44:22;;;;;;;209.43;49.08;;;;;;;0.29;100.00;160648.91;5033211;28;20132;-58
2022/11/21 08:46:48;;;;;;;227.02;52.30;;;;;;;0.39;100.00;160519.59;5031349;28;20500;-58
2022/11/21 08:49:14;;;;;;;207.75;49.42;;;;;;;0.41;100.00;160303.59;5033322;28;20026;-58
2022/11/21 08:51:39;;;;;;;220.27;45.08;;;;;;;0.41;100.00;160310.44;5031803;28;20033;-58
2022/11/21 08:54:04;;;;;;;244.93;49.20;;;;;;;0.43;100.00;160318.47;5032497;28;20102;-58
2022/11/21 08:56:30;;;;;;;213.15;46.13;;;;;;;0.41;100.00;160679.75;5029252;28;20038;-58
2022/11/21 08:58:55;;;;;;;219.25;49.03;;;;;;;0.35;100.00;160663.63;5031606;28;20033;-59
2022/11/21 09:01:22;;;;;;;168.98;44.33;;;;;;;0.26;100.00;160640.84;5030817;28;20373;-58
2022/11/21 09:03:47;;;;;;;167.85;46.58;;;;;;;0.30;100.00;160652.91;5033101;28;20387;-58
2022/11/21 09:06:13;;;;;;;271.08;52.47;;;;;;;0.26;100.00;160642.16;5030688;28;20041;-58
2022/11/21 09:08:38;;;;;;;212.38;48.45;;;;;;;0.42;100.00;160682.38;5032759;28;20018;-58
2022/11/21 09:11:05;;;;;;;146.43;40.13;;;;;;;0.39;100.00;160675.69;5030969;28;20084;-58
2022/11/21 09:13:31;;;;;;;171.90;44.40;;;;;;;0.40;100.00;160677.06;5032857;28;20025;-58
2022/11/21 09:18:41;;;;;;;167.10;45.22;;;;;;;0.43;100.00;160685.06;5032999;28;20036;-58
2022/11/21 09:21:06;;;;;;;160.43;43.03;;;;;;;0.48;100.00;160698.50;5031187;28;20026;-58
2022/11/21 09:23:32;;;;;;;115.40;35.83;;;;;;;0.49;100.00;160699.84;5032320;28;20013;-59
2022/11/21 09:25:59;;;;;;;186.45;42.97;;;;;;;0.47;100.00;160695.81;5030790;28;20079;-58
2022/11/21 09:28:24;;;;;;;128.85;45.75;;;;;;;0.53;100.00;160711.91;5032486;28;20464;-58
2022/11/21 09:30:49;;;;;;;130.07;38.65;;;;;;;0.50;100.00;160703.84;5031779;28;20037;-58
2022/11/21 09:33:18;;;;;;;100.57;36.60;;;;;;;0.45;100.00;160690.44;5030898;28;20467;-58
2022/11/21 09:35:43;;;;;;;68.43;32.60;;;;;;;0.39;100.00;160674.38;5031852;28;20468;-58
2022/11/21 09:38:08;;;;;;;116.72;42.45;;;;;;;0.47;100.00;160695.81;5030944;28;20128;-58
2022/11/21 09:40:34;;;;;;;110.03;39.15;;;;;;;0.46;100.00;160694.44;5031898;28;20030;-58
2022/11/21 09:43:42;;;;;;;88.60;40.50;;;;;;;0.46;100.00;160693.13;5030554;28;20131;-58
2022/11/21 09:46:15;;;;;;;102.93;39.53;;;;;;;0.51;100.00;160706.53;5030346;28;20563;-58
2022/11/21 09:48:45;;;;;;;89.95;35.50;;;;;;;0.47;100.00;160695.81;5032251;28;20029;-58
2022/11/21 09:51:13;;;;;;;86.15;36.38;;;;;;;0.59;100.00;160726.66;5030846;28;20021;-58
2022/11/21 09:53:50;;;;;;;96.70;41.35;;;;;;;0.67;100.00;160746.75;5031766;28;20523;-58
2022/11/21 09:56:20;;;;;;;90.10;36.22;;;;;;;0.67;100.00;160748.06;5030468;28;20043;-58
2022/11/21 09:59:18;;;;;;;84.28;36.83;;;;;;;0.62;100.00;160734.69;5031519;28;20518;-59
2022/11/21 10:01:43;;;;;;;90.22;38.95;;;;;;;0.63;100.00;160738.69;5026885;28;20045;-58
2022/11/21 10:04:09;;;;;;;86.55;37.80;;;;;;;0.69;100.00;160752.13;5031868;28;20025;-59
2022/11/21 10:06:57;;;;;;;93.30;40.90;;;;;;;0.69;100.00;160752.13;5030045;28;20045;-58
2022/11/21 10:09:44;;;;;;;93.00;42.08;;;;;;;0.55;100.00;160715.91;4982886;28;20038;-59
2022/11/21 10:12:35;;;;;;;88.28;43.08;;;;;;;0.76;100.00;160772.22;5010547;28;20038;-58
2022/11/21 10:15:16;;;;;;;88.28;36.47;;;;;;;0.77;100.00;160773.59;5011728;28;20032;-59
2022/11/21 10:17:56;;;;;;;79.93;35.83;;;;;;;0.76;100.00;160770.91;5026576;28;20040;-58
2022/11/21 10:20:49;;;;;;;89.40;40.63;;;;;;;0.82;100.00;160786.97;5031715;28;20033;-58
2022/11/21 10:23:45;;;;;;;82.88;37.72;;;;;;;0.86;100.00;160797.69;5029733;28;20037;-58
2022/11/21 10:26:16;;;;;;;85.68;37.53;;;;;;;0.98;100.00;160827.22;5029918;28;20460;-58
2022/11/21 10:28:41;;;;;;;82.75;37.65;;;;;;;1.04;100.00;160843.28;5031286;28;20524;-58
2022/11/21 10:31:12;;;;;;;81.85;38.75;;;;;;;1.08;100.00;160854.06;5029461;28;20120;-58
2022/11/21 10:33:39;;;;;;;78.15;37.65;;;;;;;1.10;100.00;160859.38;5031683;28;20032;-58
2022/11/21 10:36:19;;;;;;;79.35;35.25;;;;;;;1.10;100.00;160859.38;5029723;28;20023;-58
2022/11/21 10:38:49;;;;;;;61.60;32.85;;;;;;;1.16;100.00;160875.47;5030797;28;20029;-58
2022/11/21 10:41:20;;;;;;;69.78;33.85;;;;;;;1.22;100.00;160778.75;5029883;28;20017;-58
2022/11/21 10:47:00;;;;;;;71.47;33.45;;;;;;;1.80;100.00;154201.69;5029171;28;20068;-58
2022/11/21 10:49:31;;;;;;;62.47;35.03;;;;;;;2.03;100.00;150313.94;5031180;28;20033;-58
2022/11/21 10:52:00;;;;;;;55.33;30.33;;;;;;;2.14;100.00;148254.47;5029273;28;20033;-58
2022/11/21 10:54:31;;;;;;;54.45;32.15;;;;;;;2.28;100.00;146896.25;5030606;28;20040;-58
2022/11/21 10:57:05;;;;;;;49.90;28.65;;;;;;;2.22;100.00;147579.06;5029234;28;20471;-58
2022/11/21 10:59:30;;;;;;;50.28;28.13;;;;;;;2.10;100.00;150330.22;5031064;28;20534;-58
2022/11/21 11:02:12;;;;;;;53.38;29.52;;;;;;;2.11;100.00;152071.53;5028741;28;20041;-58
2022/11/21 11:04:37;;;;;;;53.05;30.58;;;;;;;2.13;100.00;154164.16;5031049;28;20029;-58
2022/11/21 11:07:25;;;;;;;50.55;31.63;;;;;;;2.10;100.00;157210.81;5028823;28;20389;-58
2022/11/21 11:09:52;;;;;;;61.93;30.63;;;;;;;2.15;100.00;158434.91;5030173;28;20037;-59
2022/11/21 11:15:17;;;;;;;66.50;32.63;;;;;;;2.11;100.00;161114.19;5030105;28;20240;-58
2022/11/21 11:17:42;;;;;;;61.00;30.15;;;;;;;1.97;100.00;161084.81;5027942;28;20052;-58
2022/11/21 11:20:30;;;;;;;62.75;31.42;;;;;;;2.15;100.00;161133.09;5050699;28;20118;-58